createdAt,value
2023-04-02T00:02:12.196Z,8.35
2023-04-02T00:04:58.065Z,8.52
2023-04-02T00:07:43.825Z,8.63
2023-04-02T00:10:29.634Z,8.60
2023-04-02T00:13:15.477Z,8.68
2023-04-02T00:16:01.296Z,8.84
2023-04-02T00:18:47.228Z,8.87
2023-04-02T00:21:33.172Z,8.81
2023-04-02T00:24:18.934Z,8.94
2023-04-02T00:27:04.764Z,8.93
2023-04-02T00:29:50.585Z,8.74
2023-04-02T00:32:36.471Z,8.77
2023-04-02T00:35:22.381Z,8.70
2023-04-02T00:38:08.223Z,9.02
2023-04-02T00:40:54.052Z,8.80
2023-04-02T00:43:39.924Z,9.06
2023-04-02T00:46:25.956Z,9.11
2023-04-02T00:49:12.229Z,9.00
2023-04-02T00:51:57.982Z,9.17
2023-04-02T00:54:43.871Z,9.11
2023-04-02T00:57:29.949Z,9.34
2023-04-02T01:00:16.161Z,9.44
2023-04-02T01:03:02.155Z,9.32
2023-04-02T01:05:48.437Z,9.53
2023-04-02T01:08:34.352Z,9.68
2023-04-02T01:11:20.212Z,9.82
2023-04-02T01:14:06.126Z,9.94
2023-04-02T01:16:51.977Z,9.77
2023-04-02T01:19:38.142Z,9.81
2023-04-02T01:22:24.094Z,9.96
2023-04-02T01:25:09.957Z,9.97
2023-04-02T01:27:55.739Z,9.89
2023-04-02T01:30:41.703Z,9.62
2023-04-02T01:33:27.605Z,9.82
2023-04-02T01:36:13.529Z,9.87
2023-04-02T01:38:59.506Z,9.80
2023-04-02T01:41:45.425Z,9.69
2023-04-02T01:44:31.159Z,9.75
2023-04-02T01:47:16.908Z,9.11
2023-04-02T01:50:02.750Z,9.44
2023-04-02T01:52:48.635Z,9.00
2023-04-02T01:55:34.803Z,9.09
2023-04-02T01:58:20.944Z,9.17
2023-04-02T02:01:06.931Z,9.12
2023-04-02T02:03:52.940Z,9.06
2023-04-02T02:06:38.692Z,8.96
2023-04-02T02:09:24.696Z,8.90
2023-04-02T02:12:10.555Z,8.98
2023-04-02T02:14:56.519Z,8.89
2023-04-02T02:17:42.414Z,8.88
2023-04-02T02:20:28.267Z,8.91
2023-04-02T02:23:14.119Z,8.75
2023-04-02T02:26:00.132Z,8.73
2023-04-02T02:28:45.973Z,8.71
2023-04-02T02:31:31.954Z,8.88
2023-04-02T02:34:17.728Z,8.82
2023-04-02T02:37:03.581Z,8.75
2023-04-02T02:39:49.484Z,9.17
2023-04-02T02:42:35.401Z,9.09
2023-04-02T02:45:21.289Z,9.33
2023-04-02T02:48:07.186Z,9.26
2023-04-02T02:50:53.037Z,9.26
2023-04-02T02:53:39.052Z,9.45
2023-04-02T02:56:24.974Z,9.33
2023-04-02T02:59:10.805Z,9.38
2023-04-02T03:01:56.676Z,8.99
2023-04-02T03:04:42.470Z,9.29
2023-04-02T03:07:28.382Z,9.04
2023-04-02T03:10:14.279Z,8.93
2023-04-02T03:13:00.181Z,8.45
2023-04-02T03:15:46.083Z,8.28
2023-04-02T03:18:31.981Z,8.46
2023-04-02T03:21:17.845Z,8.41
2023-04-02T03:24:03.669Z,8.66
2023-04-02T03:26:49.558Z,8.96
2023-04-02T03:29:35.512Z,8.72
2023-04-02T03:32:21.201Z,8.88
2023-04-02T03:35:07.190Z,9.02
2023-04-02T03:37:53.074Z,9.10
2023-04-02T03:40:38.886Z,9.21
2023-04-02T03:43:24.735Z,9.38
2023-04-02T03:46:12.537Z,9.14
2023-04-02T03:48:58.439Z,8.98
2023-04-02T03:51:44.366Z,9.08
2023-04-02T03:54:30.229Z,9.06
2023-04-02T03:57:16.123Z,9.10
2023-04-02T04:00:02.148Z,9.08
2023-04-02T04:02:48.048Z,8.92
2023-04-02T04:05:36.197Z,8.98
2023-04-02T04:08:22.390Z,9.01
2023-04-02T04:11:08.259Z,9.05
2023-04-02T04:13:54.288Z,9.13
2023-04-02T04:16:40.162Z,8.89
2023-04-02T04:19:25.966Z,8.99
2023-04-02T04:22:11.998Z,9.09
2023-04-02T04:24:57.784Z,9.02
2023-04-02T04:27:43.562Z,9.09
2023-04-02T04:30:29.543Z,8.68
2023-04-02T04:33:15.441Z,8.74
2023-04-02T04:36:01.597Z,8.69
2023-04-02T04:38:47.385Z,8.84
2023-04-02T04:41:33.151Z,8.75
2023-04-02T04:44:18.984Z,8.81
2023-04-02T04:47:04.926Z,8.78
2023-04-02T04:49:50.789Z,8.55
2023-04-02T04:52:36.527Z,8.67
2023-04-02T04:55:22.430Z,8.89
2023-04-02T04:58:08.370Z,8.76
2023-04-02T05:00:54.172Z,8.78
2023-04-02T05:03:40.084Z,8.57
2023-04-02T05:06:25.937Z,8.51
2023-04-02T05:09:11.848Z,8.69
2023-04-02T05:11:57.735Z,8.60
2023-04-02T05:14:43.552Z,8.68
2023-04-02T05:17:29.448Z,8.48
2023-04-02T05:20:15.367Z,8.82
2023-04-02T05:23:01.208Z,8.63
2023-04-02T05:25:47.107Z,8.84
2023-04-02T05:28:32.930Z,8.72
2023-04-02T05:31:18.653Z,8.96
2023-04-02T05:34:04.681Z,8.66
2023-04-02T05:36:50.456Z,8.75
2023-04-02T05:39:36.538Z,8.89
2023-04-02T05:42:22.509Z,8.78
2023-04-02T05:45:08.278Z,8.92
2023-04-02T05:47:54.134Z,9.15
2023-04-02T05:50:39.947Z,9.05
2023-04-02T05:53:27.904Z,9.09
2023-04-02T05:56:13.851Z,8.93
2023-04-02T05:58:59.860Z,8.87
2023-04-02T06:01:46.041Z,8.98
2023-04-02T06:04:31.892Z,8.89
2023-04-02T06:07:17.728Z,8.73
2023-04-02T06:10:03.553Z,8.86
2023-04-02T06:12:49.399Z,8.85
2023-04-02T06:15:35.657Z,8.82
2023-04-02T06:18:21.797Z,9.00
2023-04-02T06:21:07.677Z,9.15
2023-04-02T06:23:53.593Z,9.01
2023-04-02T06:26:39.609Z,8.99
2023-04-02T06:29:25.390Z,9.38
2023-04-02T06:32:11.373Z,9.48
2023-04-02T06:34:57.334Z,9.55
2023-04-02T06:37:43.182Z,9.42
2023-04-02T06:40:30.194Z,9.36
2023-04-02T06:43:15.965Z,9.14
2023-04-02T06:46:01.998Z,9.10
2023-04-02T06:48:48.129Z,9.32
2023-04-02T06:51:34.017Z,9.38
2023-04-02T06:54:19.937Z,9.38
2023-04-02T06:57:05.892Z,9.43
2023-04-02T06:59:51.638Z,9.45
2023-04-02T07:02:37.564Z,9.53
2023-04-02T07:05:23.499Z,9.52
2023-04-02T07:08:09.395Z,9.61
2023-04-02T07:10:55.386Z,9.61
2023-04-02T07:13:41.290Z,9.61
2023-04-02T07:16:27.398Z,9.58
2023-04-02T07:19:13.588Z,9.64
2023-04-02T07:21:59.904Z,9.32
2023-04-02T07:24:45.820Z,9.25
2023-04-02T07:27:31.699Z,9.40
2023-04-02T07:30:17.504Z,9.54
2023-04-02T07:33:05.518Z,9.61
2023-04-02T07:35:51.372Z,9.49
2023-04-02T07:38:37.377Z,9.63
2023-04-02T07:41:23.324Z,9.89
2023-04-02T07:44:09.151Z,9.89
2023-04-02T07:46:54.983Z,9.91
2023-04-02T07:49:40.837Z,10.03
2023-04-02T07:52:26.643Z,10.22
2023-04-02T07:55:12.588Z,10.11
2023-04-02T07:57:58.468Z,10.50
2023-04-02T08:00:44.357Z,10.88
2023-04-02T08:03:30.435Z,10.25
2023-04-02T08:06:16.748Z,10.20
2023-04-02T08:09:02.678Z,10.37
2023-04-02T08:11:48.657Z,10.66
2023-04-02T08:14:34.617Z,10.55
2023-04-02T08:17:20.550Z,10.67
2023-04-02T08:20:06.371Z,10.02
2023-04-02T08:22:52.399Z,10.13
2023-04-02T08:25:38.406Z,10.39
2023-04-02T08:28:24.198Z,10.41
2023-04-02T08:31:10.232Z,10.54
2023-04-02T08:33:56.252Z,10.74
2023-04-02T08:36:42.197Z,10.88
2023-04-02T08:39:30.128Z,10.55
2023-04-02T08:42:16.018Z,10.45
2023-04-02T08:45:08.117Z,10.17
2023-04-02T08:48:00.220Z,10.61
2023-04-02T08:50:46.316Z,10.74
2023-04-02T08:53:32.277Z,10.68
2023-04-02T08:56:18.102Z,10.25
2023-04-02T08:59:04.030Z,10.43
2023-04-02T09:01:50.084Z,10.44
2023-04-02T09:04:35.963Z,10.54
2023-04-02T09:07:21.854Z,10.61
2023-04-02T09:10:09.783Z,10.56
2023-04-02T09:12:55.664Z,10.85
2023-04-02T09:15:41.579Z,10.90
2023-04-02T09:18:27.683Z,10.98
2023-04-02T09:21:13.565Z,11.15
2023-04-02T09:23:59.502Z,11.06
2023-04-02T09:26:45.300Z,10.85
2023-04-02T09:29:31.226Z,10.78
2023-04-02T09:32:17.167Z,11.20
2023-04-02T09:35:05.551Z,11.20
2023-04-02T09:37:55.359Z,11.03
2023-04-02T09:40:41.209Z,10.38
2023-04-02T09:43:26.937Z,10.45
2023-04-02T09:46:13.039Z,10.83
2023-04-02T09:48:59.037Z,10.88
2023-04-02T09:51:44.756Z,10.24
2023-04-02T09:54:30.663Z,9.96
2023-04-02T09:57:16.614Z,10.03
2023-04-02T10:00:02.617Z,10.13
2023-04-02T10:02:48.664Z,9.67
2023-04-02T10:05:39.911Z,9.62
2023-04-02T10:08:27.296Z,9.93
2023-04-02T10:11:13.132Z,10.09
2023-04-02T10:13:59.159Z,9.87
2023-04-02T10:16:45.072Z,10.18
2023-04-02T10:19:31.082Z,10.59
2023-04-02T10:22:16.999Z,9.94
2023-04-02T10:25:02.900Z,9.12
2023-04-02T10:27:48.737Z,9.34
2023-04-02T10:30:34.656Z,9.27
2023-04-02T10:33:20.650Z,9.17
2023-04-02T10:36:06.578Z,9.27
2023-04-02T10:38:52.478Z,9.37
2023-04-02T10:41:38.372Z,9.58
2023-04-02T10:44:24.276Z,9.72
2023-04-02T10:47:10.155Z,9.57
2023-04-02T10:49:56.040Z,9.41
2023-04-02T10:52:41.782Z,9.32
2023-04-02T10:55:27.613Z,9.42
2023-04-02T10:58:13.631Z,9.09
2023-04-02T11:00:59.460Z,9.31
2023-04-02T11:03:45.379Z,9.60
2023-04-02T11:06:31.724Z,9.67
2023-04-02T11:09:17.660Z,9.68
2023-04-02T11:12:03.584Z,9.64
2023-04-02T11:14:49.429Z,9.30
2023-04-02T11:17:35.483Z,9.37
2023-04-02T11:20:21.455Z,9.43
2023-04-02T11:23:07.355Z,9.07
2023-04-02T11:25:53.277Z,8.91
2023-04-02T11:28:39.132Z,8.41
2023-04-02T11:31:25.075Z,8.78
2023-04-02T11:34:11.015Z,8.85
2023-04-02T11:36:56.765Z,9.37
2023-04-02T11:39:42.664Z,9.64
2023-04-02T11:42:28.609Z,9.99
2023-04-02T11:45:14.522Z,10.43
2023-04-02T11:48:00.549Z,10.49
2023-04-02T11:50:46.911Z,9.45
2023-04-02T11:53:33.255Z,9.16
2023-04-02T11:56:19.242Z,10.15
2023-04-02T11:59:05.115Z,10.44
2023-04-02T12:01:51.094Z,10.09
2023-04-02T12:04:36.985Z,10.08
2023-04-02T12:07:22.843Z,9.97
2023-04-02T12:10:08.728Z,10.07
2023-04-02T12:12:54.640Z,10.02
2023-04-02T12:15:40.504Z,9.84
2023-04-02T12:18:26.335Z,10.24
2023-04-02T12:21:12.277Z,10.10
2023-04-02T12:23:58.271Z,10.42
2023-04-02T12:26:44.160Z,10.39
2023-04-02T12:29:30.036Z,10.42
2023-04-02T12:32:16.010Z,10.18
2023-04-02T12:35:01.944Z,10.62
2023-04-02T12:37:47.817Z,10.89
2023-04-02T12:40:33.828Z,10.43
2023-04-02T12:43:20.201Z,10.45
2023-04-02T12:46:06.051Z,10.37
2023-04-02T12:48:51.951Z,10.50
2023-04-02T12:51:37.856Z,10.78
2023-04-02T12:54:23.797Z,10.75
2023-04-02T12:57:09.615Z,10.91
2023-04-02T12:59:55.556Z,10.94
2023-04-02T13:02:41.458Z,11.06
2023-04-02T13:05:27.419Z,11.04
2023-04-02T13:08:13.275Z,11.03
2023-04-02T13:10:59.018Z,10.74
2023-04-02T13:13:45.088Z,10.66
2023-04-02T13:16:31.048Z,10.47
2023-04-02T13:19:16.866Z,10.73
2023-04-02T13:22:02.803Z,10.88
2023-04-02T13:24:48.655Z,11.37
2023-04-02T13:27:34.458Z,11.73
2023-04-02T13:30:20.321Z,11.22
2023-04-02T13:33:06.135Z,11.37
2023-04-02T13:35:52.161Z,11.57
2023-04-02T13:38:38.198Z,10.24
2023-04-02T13:41:24.102Z,10.90
2023-04-02T13:44:10.014Z,11.12
2023-04-02T13:46:55.795Z,10.98
2023-04-02T13:49:41.837Z,10.75
2023-04-02T13:52:27.742Z,10.60
2023-04-02T13:55:13.553Z,10.11
2023-04-02T13:57:59.396Z,9.80
2023-04-02T14:00:45.242Z,10.40
2023-04-02T14:03:31.158Z,10.55
2023-04-02T14:06:17.093Z,10.68
2023-04-02T14:09:02.790Z,10.88
2023-04-02T14:11:48.637Z,10.65
2023-04-02T14:14:34.555Z,9.08
2023-04-02T14:17:20.461Z,10.04
2023-04-02T14:20:06.422Z,10.73
2023-04-02T14:22:52.354Z,10.83
2023-04-02T14:25:38.341Z,11.14
2023-04-02T14:28:24.723Z,10.38
2023-04-02T14:31:10.591Z,10.65
2023-04-02T14:33:56.539Z,10.51
2023-04-02T14:36:42.584Z,10.75
2023-04-02T14:39:28.407Z,10.78
2023-04-02T14:42:14.298Z,11.20
2023-04-02T14:45:00.350Z,11.26
2023-04-02T14:47:46.134Z,11.42
2023-04-02T14:50:34.312Z,11.63
2023-04-02T14:53:20.316Z,11.82
2023-04-02T14:56:06.113Z,11.89
2023-04-02T14:58:51.937Z,12.30
2023-04-02T15:01:37.943Z,11.98
2023-04-02T15:04:24.240Z,12.09
2023-04-02T15:07:10.233Z,11.42
2023-04-02T15:09:56.011Z,11.53
2023-04-02T15:12:41.906Z,11.50
2023-04-02T15:15:39.006Z,11.49
2023-04-02T15:18:25.637Z,11.65
2023-04-02T15:21:11.440Z,11.03
2023-04-02T15:23:57.392Z,11.10
2023-04-02T15:26:43.245Z,11.23
2023-04-02T15:29:29.746Z,11.07
2023-04-02T15:32:16.070Z,10.71
2023-04-02T15:35:01.978Z,10.75
2023-04-02T15:37:47.841Z,11.02
2023-04-02T15:40:33.816Z,10.74
2023-04-02T15:43:19.770Z,10.92
2023-04-02T15:46:05.646Z,10.59
2023-04-02T15:48:51.742Z,10.30
2023-04-02T15:51:37.626Z,10.29
2023-04-02T15:54:23.640Z,10.27
2023-04-02T15:57:09.502Z,10.26
2023-04-02T15:59:55.455Z,10.40
2023-04-02T16:02:41.445Z,10.60
2023-04-02T16:05:27.712Z,10.53
2023-04-02T16:08:13.501Z,10.37
2023-04-02T16:10:59.450Z,10.57
2023-04-02T16:13:45.204Z,10.91
2023-04-02T16:16:31.238Z,11.05
2023-04-02T16:19:17.210Z,10.94
2023-04-02T16:22:03.454Z,10.47
2023-04-02T16:24:51.381Z,10.50
2023-04-02T16:27:37.316Z,10.73
2023-04-02T16:30:23.166Z,11.03
2023-04-02T16:33:09.159Z,11.08
2023-04-02T16:35:55.319Z,11.34
2023-04-02T16:38:41.613Z,11.60
2023-04-02T16:41:27.503Z,11.86
2023-04-02T16:44:13.218Z,11.72
2023-04-02T16:47:01.265Z,11.70
2023-04-02T16:49:47.551Z,11.94
2023-04-02T16:52:33.342Z,12.22
2023-04-02T16:55:19.265Z,11.59
2023-04-02T16:58:05.130Z,11.60
2023-04-02T17:00:51.052Z,11.61
2023-04-02T17:03:37.113Z,11.26
2023-04-02T17:06:23.040Z,11.22
2023-04-02T17:09:08.998Z,11.34
2023-04-02T17:11:54.855Z,11.51
2023-04-02T17:14:40.626Z,11.42
2023-04-02T17:17:26.542Z,11.61
2023-04-02T17:20:12.451Z,11.72
2023-04-02T17:22:58.283Z,11.60
2023-04-02T17:25:44.305Z,11.01
2023-04-02T17:28:30.190Z,11.15
2023-04-02T17:31:16.389Z,11.23
2023-04-02T17:34:02.289Z,11.34
2023-04-02T17:36:48.099Z,11.48
2023-04-02T17:39:34.018Z,11.68
2023-04-02T17:42:19.916Z,11.80
2023-04-02T17:45:05.823Z,11.89
2023-04-02T17:47:51.811Z,11.88
2023-04-02T17:50:37.938Z,12.00
2023-04-02T17:53:24.531Z,12.21
2023-04-02T17:56:10.514Z,12.04
2023-04-02T17:58:56.266Z,11.88
2023-04-02T18:01:42.217Z,11.80
2023-04-02T18:04:28.073Z,11.72
2023-04-02T18:07:13.888Z,11.65
2023-04-02T18:09:59.786Z,11.67
2023-04-02T18:12:45.593Z,11.67
2023-04-02T18:15:31.510Z,11.74
2023-04-02T18:18:17.388Z,11.61
2023-04-02T18:21:03.311Z,11.82
2023-04-02T18:23:49.325Z,11.32
2023-04-02T18:26:35.254Z,11.51
2023-04-02T18:29:21.197Z,11.44
2023-04-02T18:32:07.201Z,11.36
2023-04-02T18:34:53.055Z,11.21
2023-04-02T18:37:39.013Z,11.15
2023-04-02T18:40:24.895Z,10.82
2023-04-02T18:43:10.864Z,10.08
2023-04-02T18:45:56.856Z,10.39
2023-04-02T18:48:42.702Z,10.40
2023-04-02T18:51:28.707Z,10.37
2023-04-02T18:54:14.521Z,10.23
2023-04-02T18:57:00.361Z,10.20
2023-04-02T18:59:46.352Z,10.22
2023-04-02T19:02:32.323Z,9.99
2023-04-02T19:05:18.580Z,9.88
2023-04-02T19:08:04.399Z,9.87
2023-04-02T19:10:50.090Z,9.93
2023-04-02T19:13:35.981Z,10.06
2023-04-02T19:16:22.120Z,9.85
2023-04-02T19:19:08.050Z,9.82
2023-04-02T19:21:53.848Z,9.44
2023-04-02T19:24:39.780Z,9.75
2023-04-02T19:27:25.734Z,9.96
2023-04-02T19:30:11.700Z,10.04
2023-04-02T19:32:57.614Z,10.09
2023-04-02T19:35:43.655Z,10.09
2023-04-02T19:38:29.584Z,9.92
2023-04-02T19:41:15.511Z,9.82
2023-04-02T19:44:01.489Z,10.05
2023-04-02T19:46:47.273Z,10.22
2023-04-02T19:49:33.245Z,10.12
2023-04-02T19:52:19.011Z,9.98
2023-04-02T19:55:04.863Z,10.26
2023-04-02T19:57:52.645Z,9.99
2023-04-02T20:00:40.760Z,10.23
2023-04-02T20:03:26.616Z,10.13
2023-04-02T20:06:12.920Z,9.98
2023-04-02T20:08:59.199Z,9.92
2023-04-02T20:11:45.001Z,9.89
2023-04-02T20:14:30.873Z,9.48
2023-04-02T20:17:16.741Z,9.73
2023-04-02T20:20:02.583Z,10.14
2023-04-02T20:22:48.502Z,10.54
2023-04-02T20:25:34.398Z,10.68
2023-04-02T20:28:20.415Z,10.81
2023-04-02T20:31:06.368Z,10.89
2023-04-02T20:33:52.436Z,10.19
2023-04-02T20:36:38.745Z,10.17
2023-04-02T20:39:24.576Z,9.98
2023-04-02T20:42:10.388Z,9.55
2023-04-02T20:44:56.236Z,9.17
2023-04-02T20:47:42.139Z,8.73
2023-04-02T20:50:28.050Z,8.27
2023-04-02T20:53:14.012Z,8.13
2023-04-02T20:55:59.853Z,8.04
2023-04-02T20:58:45.748Z,8.91
2023-04-02T21:01:31.617Z,9.34
2023-04-02T21:04:17.476Z,9.65
2023-04-02T21:07:03.541Z,9.93
2023-04-02T21:09:49.440Z,8.99
2023-04-02T21:12:35.374Z,8.73
2023-04-02T21:15:21.290Z,8.32
2023-04-02T21:18:07.162Z,8.15
2023-04-02T21:20:53.104Z,7.65
2023-04-02T21:23:38.936Z,7.62
2023-04-02T21:26:24.733Z,7.75
2023-04-02T21:29:10.747Z,7.62
2023-04-02T21:31:56.815Z,7.56
2023-04-02T21:34:43.070Z,7.38
2023-04-02T21:37:28.964Z,7.38
2023-04-02T21:40:14.884Z,7.04
2023-04-02T21:43:00.834Z,7.16
2023-04-02T21:45:46.657Z,7.22
2023-04-02T21:48:32.524Z,7.59
2023-04-02T21:51:18.665Z,8.01
2023-04-02T21:54:04.546Z,7.87
2023-04-02T21:56:50.386Z,7.73
2023-04-02T21:59:36.285Z,7.22
2023-04-02T22:02:22.149Z,7.08
2023-04-02T22:05:07.974Z,6.51
2023-04-02T22:07:53.842Z,6.52
2023-04-02T22:10:39.677Z,6.34
2023-04-02T22:13:25.675Z,6.33
2023-04-02T22:16:11.532Z,6.45
2023-04-02T22:18:57.372Z,5.89
2023-04-02T22:21:43.439Z,5.79
2023-04-02T22:24:29.412Z,5.72
2023-04-02T22:27:21.792Z,5.60
2023-04-02T22:30:07.572Z,5.92
2023-04-02T22:32:53.674Z,5.82
2023-04-02T22:35:39.513Z,5.96
2023-04-02T22:38:25.373Z,5.94
2023-04-02T22:41:11.413Z,5.82
2023-04-02T22:43:57.098Z,5.96
2023-04-02T22:46:43.038Z,5.91
2023-04-02T22:49:28.872Z,5.70
2023-04-02T22:52:14.679Z,5.35
2023-04-02T22:55:00.431Z,5.47
2023-04-02T22:57:46.384Z,5.80
2023-04-02T23:00:32.183Z,5.93
2023-04-02T23:03:18.247Z,5.66
2023-04-02T23:06:04.107Z,5.14
2023-04-02T23:08:49.941Z,5.13
2023-04-02T23:11:35.772Z,5.19
2023-04-02T23:14:21.732Z,5.27
2023-04-02T23:17:07.650Z,5.29
2023-04-02T23:19:53.514Z,4.96
2023-04-02T23:22:39.465Z,5.02
2023-04-02T23:25:25.347Z,5.09
2023-04-02T23:28:11.243Z,5.09
2023-04-02T23:30:57.177Z,5.22
2023-04-02T23:33:42.954Z,5.19
2023-04-02T23:36:28.903Z,5.06
2023-04-02T23:39:14.811Z,5.04
2023-04-02T23:42:00.751Z,4.95
2023-04-02T23:44:46.641Z,5.05
2023-04-02T23:47:32.493Z,4.84
2023-04-02T23:50:18.416Z,4.77
2023-04-02T23:53:04.419Z,4.87
2023-04-02T23:55:50.263Z,4.81
2023-04-02T23:58:36.127Z,4.82
